AEA62Z LOWS-EPMO
Flight info
| Callsign | AEA62Z |
|---|---|
| Flight time | 1h 17m |
| Altitude | 28000 |
| Route | INROM DCT LEDVA DCT NETIR Z121 SKAVI M985 KOTEK M866 LOGDA |
| Aircraft | B738/M-SDE2E3FGHIRWXY/LB1 |
Departure
| Time | 2026-05-08 18:14 |
|---|---|
| Airport | Salzburg Airport (LOWS) |
Arrival
| Time | 2026-05-08 19:31 |
|---|---|
| Airport | Warsaw Modlin Airport (EPMO) |
| Time | Latitude | Longitude | Altitude | Speed | Heading |
|---|---|---|---|---|---|
| 2026-05-08 17:36 | 47.79285 | 13.00049 | 1416 ft | 0 kts | 102° |
| 2026-05-08 17:59 | 47.79286 | 13.00037 | 1416 ft | 1 kts | 55° |
| 2026-05-08 17:59 | 47.79278 | 13.00030 | 1416 ft | 2 kts | 7° |
| 2026-05-08 18:00 | 47.79263 | 13.00025 | 1416 ft | 2 kts | 23° |
| 2026-05-08 18:00 | 47.79235 | 13.00010 | 1416 ft | 2 kts | 19° |
| 2026-05-08 18:00 | 47.79220 | 13.00002 | 1416 ft | 2 kts | 19° |
| 2026-05-08 18:01 | 47.79210 | 12.99997 | 1416 ft | 1 kts | 45° |
| 2026-05-08 18:01 | 47.79206 | 12.99987 | 1416 ft | 1 kts | 90° |
| 2026-05-08 18:01 | 47.79209 | 12.99975 | 1417 ft | 0 kts | 136° |
| 2026-05-08 18:01 | 47.79212 | 12.99973 | 1417 ft | 1 kts | 149° |
| 2026-05-08 18:02 | 47.79215 | 12.99970 | 1417 ft | 0 kts | 144° |
| 2026-05-08 18:05 | 47.79207 | 12.99978 | 1417 ft | 3 kts | 145° |
| 2026-05-08 18:05 | 47.79175 | 13.00011 | 1416 ft | 6 kts | 146° |
| 2026-05-08 18:05 | 47.79137 | 13.00050 | 1416 ft | 7 kts | 146° |
| 2026-05-08 18:06 | 47.79096 | 13.00091 | 1416 ft | 7 kts | 145° |
| 2026-05-08 18:06 | 47.79055 | 13.00133 | 1416 ft | 7 kts | 145° |
| 2026-05-08 18:06 | 47.79012 | 13.00178 | 1415 ft | 8 kts | 145° |
| 2026-05-08 18:06 | 47.78977 | 13.00213 | 1415 ft | 0 kts | 145° |
| 2026-05-08 18:08 | 47.78964 | 13.00227 | 1415 ft | 3 kts | 146° |
| 2026-05-08 18:08 | 47.78956 | 13.00267 | 1414 ft | 5 kts | 95° |
| 2026-05-08 18:09 | 47.78950 | 13.00336 | 1413 ft | 7 kts | 114° |
| 2026-05-08 18:09 | 47.78907 | 13.00390 | 1412 ft | 8 kts | 149° |
| 2026-05-08 18:09 | 47.78855 | 13.00429 | 1413 ft | 8 kts | 156° |
| 2026-05-08 18:09 | 47.78799 | 13.00466 | 1413 ft | 8 kts | 156° |
| 2026-05-08 18:10 | 47.78743 | 13.00505 | 1413 ft | 9 kts | 155° |
| 2026-05-08 18:10 | 47.78684 | 13.00544 | 1413 ft | 9 kts | 155° |
| 2026-05-08 18:10 | 47.78623 | 13.00585 | 1413 ft | 9 kts | 155° |
| 2026-05-08 18:10 | 47.78560 | 13.00624 | 1413 ft | 10 kts | 161° |
| 2026-05-08 18:11 | 47.78494 | 13.00660 | 1413 ft | 10 kts | 154° |
| 2026-05-08 18:11 | 47.78430 | 13.00701 | 1414 ft | 9 kts | 157° |
| 2026-05-08 18:11 | 47.78369 | 13.00739 | 1414 ft | 9 kts | 157° |
| 2026-05-08 18:11 | 47.78310 | 13.00776 | 1415 ft | 9 kts | 158° |
| 2026-05-08 18:12 | 47.78254 | 13.00810 | 1415 ft | 8 kts | 158° |
| 2026-05-08 18:12 | 47.78209 | 13.00857 | 1416 ft | 8 kts | 123° |
| 2026-05-08 18:12 | 47.78185 | 13.00938 | 1415 ft | 9 kts | 93° |
| 2026-05-08 18:12 | 47.78199 | 13.01048 | 1414 ft | 13 kts | 63° |
| 2026-05-08 18:13 | 47.78309 | 13.01037 | 1413 ft | 22 kts | 340° |
| 2026-05-08 18:13 | 47.78542 | 13.00895 | 1411 ft | 52 kts | 338° |
| 2026-05-08 18:13 | 47.79026 | 13.00614 | 1410 ft | 100 kts | 341° |
| 2026-05-08 18:13 | 47.79881 | 12.99989 | 1644 ft | 171 kts | 333° |
| 2026-05-08 18:14 | 47.81050 | 12.99274 | 2508 ft | 192 kts | 343° |
| 2026-05-08 18:14 | 47.82362 | 12.98966 | 3145 ft | 193 kts | 7° |
| 2026-05-08 18:14 | 47.83573 | 12.99727 | 3595 ft | 192 kts | 37° |
| 2026-05-08 18:14 | 47.84624 | 13.00953 | 4063 ft | 195 kts | 38° |
| 2026-05-08 18:15 | 47.85711 | 13.02153 | 4528 ft | 196 kts | 37° |
| 2026-05-08 18:15 | 47.86820 | 13.03338 | 4965 ft | 201 kts | 37° |
| 2026-05-08 18:15 | 47.87965 | 13.04566 | 5075 ft | 201 kts | 38° |
| 2026-05-08 18:15 | 47.89083 | 13.05779 | 5060 ft | 199 kts | 38° |
| 2026-05-08 18:16 | 47.90209 | 13.07002 | 5054 ft | 199 kts | 38° |
| 2026-05-08 18:16 | 47.91322 | 13.08209 | 5050 ft | 198 kts | 38° |
| 2026-05-08 18:16 | 47.92437 | 13.09415 | 5057 ft | 198 kts | 37° |
| 2026-05-08 18:16 | 47.93546 | 13.10616 | 5053 ft | 198 kts | 37° |
| 2026-05-08 18:17 | 47.94661 | 13.11825 | 5053 ft | 198 kts | 37° |
| 2026-05-08 18:17 | 47.95769 | 13.13030 | 5049 ft | 198 kts | 37° |
| 2026-05-08 18:17 | 47.96885 | 13.14243 | 5051 ft | 198 kts | 37° |
| 2026-05-08 18:17 | 47.98001 | 13.15452 | 5052 ft | 200 kts | 37° |
| 2026-05-08 18:18 | 47.99157 | 13.16710 | 5053 ft | 207 kts | 37° |
| 2026-05-08 18:18 | 48.00314 | 13.17973 | 5051 ft | 207 kts | 38° |
| 2026-05-08 18:18 | 48.01354 | 13.19463 | 5048 ft | 206 kts | 55° |
| 2026-05-08 18:18 | 48.01895 | 13.21402 | 5053 ft | 205 kts | 74° |
| 2026-05-08 18:19 | 48.02272 | 13.23452 | 5049 ft | 205 kts | 74° |
| 2026-05-08 18:19 | 48.02690 | 13.25502 | 5047 ft | 206 kts | 72° |
| 2026-05-08 18:19 | 48.03125 | 13.27524 | 5047 ft | 205 kts | 72° |
| 2026-05-08 18:19 | 48.03566 | 13.29554 | 5048 ft | 206 kts | 72° |
| 2026-05-08 18:20 | 48.04004 | 13.31576 | 5043 ft | 206 kts | 72° |
| 2026-05-08 18:20 | 48.04444 | 13.33610 | 5048 ft | 206 kts | 72° |
| 2026-05-08 18:20 | 48.04888 | 13.35662 | 5053 ft | 206 kts | 72° |
| 2026-05-08 18:20 | 48.05322 | 13.37682 | 5250 ft | 204 kts | 72° |
| 2026-05-08 18:21 | 48.05752 | 13.39687 | 5716 ft | 208 kts | 72° |
| 2026-05-08 18:21 | 48.06199 | 13.41762 | 6193 ft | 212 kts | 72° |
| 2026-05-08 18:21 | 48.06679 | 13.43955 | 6688 ft | 231 kts | 72° |
| 2026-05-08 18:21 | 48.07177 | 13.46265 | 7184 ft | 240 kts | 72° |
| 2026-05-08 18:22 | 48.07683 | 13.48648 | 7682 ft | 244 kts | 72° |
| 2026-05-08 18:22 | 48.08200 | 13.51079 | 8177 ft | 245 kts | 72° |
| 2026-05-08 18:22 | 48.08720 | 13.53516 | 8676 ft | 251 kts | 71° |
| 2026-05-08 18:22 | 48.09254 | 13.56015 | 9173 ft | 254 kts | 71° |
| 2026-05-08 18:23 | 48.09788 | 13.58527 | 9664 ft | 257 kts | 71° |
| 2026-05-08 18:23 | 48.10334 | 13.61083 | 10167 ft | 261 kts | 71° |
| 2026-05-08 18:23 | 48.10883 | 13.63661 | 10658 ft | 265 kts | 71° |
| 2026-05-08 18:23 | 48.11446 | 13.66305 | 11157 ft | 267 kts | 72° |
| 2026-05-08 18:24 | 48.12010 | 13.68962 | 11649 ft | 270 kts | 72° |
| 2026-05-08 18:24 | 48.12574 | 13.71623 | 12151 ft | 273 kts | 71° |
| 2026-05-08 18:24 | 48.13158 | 13.74383 | 12654 ft | 290 kts | 71° |
| 2026-05-08 18:24 | 48.13791 | 13.77360 | 13156 ft | 317 kts | 71° |
| 2026-05-08 18:25 | 48.14472 | 13.80571 | 13653 ft | 330 kts | 71° |
| 2026-05-08 18:25 | 48.15171 | 13.83888 | 14141 ft | 334 kts | 71° |
| 2026-05-08 18:25 | 48.15868 | 13.87200 | 14647 ft | 336 kts | 71° |
| 2026-05-08 18:25 | 48.16567 | 13.90531 | 15153 ft | 339 kts | 71° |
| 2026-05-08 18:26 | 48.17275 | 13.93910 | 15649 ft | 341 kts | 71° |
| 2026-05-08 18:26 | 48.17978 | 13.97266 | 16152 ft | 343 kts | 71° |
| 2026-05-08 18:26 | 48.18693 | 14.00685 | 16651 ft | 353 kts | 71° |
| 2026-05-08 18:26 | 48.19448 | 14.04291 | 17135 ft | 374 kts | 71° |
| 2026-05-08 18:27 | 48.20243 | 14.08096 | 17623 ft | 393 kts | 71° |
| 2026-05-08 18:27 | 48.20794 | 14.10741 | 17956 ft | 406 kts | 71° |
| 2026-05-08 18:27 | 48.21943 | 14.16263 | 18640 ft | 429 kts | 72° |
| 2026-05-08 18:27 | 48.22845 | 14.20610 | 19155 ft | 445 kts | 72° |
| 2026-05-08 18:28 | 48.23761 | 14.25039 | 19673 ft | 455 kts | 72° |
| 2026-05-08 18:28 | 48.24698 | 14.29584 | 20191 ft | 459 kts | 72° |
| 2026-05-08 18:28 | 48.25648 | 14.34204 | 20729 ft | 465 kts | 72° |
| 2026-05-08 18:28 | 48.26596 | 14.38827 | 21263 ft | 468 kts | 72° |
| 2026-05-08 18:29 | 48.27551 | 14.43492 | 21786 ft | 473 kts | 72° |
| 2026-05-08 18:29 | 48.28503 | 14.48160 | 22312 ft | 476 kts | 72° |
| 2026-05-08 18:29 | 48.29481 | 14.52962 | 22830 ft | 482 kts | 72° |
| 2026-05-08 18:29 | 48.30453 | 14.57744 | 23357 ft | 485 kts | 72° |
| 2026-05-08 18:30 | 48.31435 | 14.62587 | 23866 ft | 489 kts | 72° |
| 2026-05-08 18:30 | 48.32437 | 14.67538 | 24408 ft | 495 kts | 73° |
| 2026-05-08 18:30 | 48.33427 | 14.72438 | 24939 ft | 499 kts | 73° |
| 2026-05-08 18:30 | 48.34429 | 14.77417 | 25473 ft | 504 kts | 73° |
| 2026-05-08 18:31 | 48.35451 | 14.82510 | 25992 ft | 510 kts | 74° |
| 2026-05-08 18:31 | 48.36472 | 14.87609 | 26521 ft | 515 kts | 74° |
| 2026-05-08 18:31 | 48.37504 | 14.92775 | 27055 ft | 516 kts | 74° |
| 2026-05-08 18:31 | 48.38521 | 14.97880 | 27576 ft | 516 kts | 74° |
| 2026-05-08 18:32 | 48.39553 | 15.03074 | 28006 ft | 518 kts | 74° |
| 2026-05-08 18:32 | 48.40570 | 15.08211 | 28042 ft | 515 kts | 74° |
| 2026-05-08 18:32 | 48.42579 | 15.18383 | 28053 ft | 495 kts | 74° |
| 2026-05-08 18:33 | 48.44513 | 15.28235 | 28062 ft | 491 kts | 74° |
| 2026-05-08 18:33 | 48.46437 | 15.38097 | 28074 ft | 492 kts | 74° |
| 2026-05-08 18:34 | 48.48343 | 15.47907 | 28078 ft | 493 kts | 74° |
| 2026-05-08 18:34 | 48.50261 | 15.57819 | 28074 ft | 493 kts | 74° |
| 2026-05-08 18:35 | 48.52174 | 15.67760 | 28079 ft | 493 kts | 75° |
| 2026-05-08 18:35 | 48.54066 | 15.77643 | 28071 ft | 492 kts | 74° |
| 2026-05-08 18:36 | 48.55955 | 15.87560 | 28078 ft | 494 kts | 74° |
| 2026-05-08 18:36 | 48.57831 | 15.97467 | 28077 ft | 494 kts | 74° |
| 2026-05-08 18:37 | 48.59710 | 16.07449 | 28082 ft | 494 kts | 74° |
| 2026-05-08 18:37 | 48.61567 | 16.17361 | 28081 ft | 495 kts | 74° |
| 2026-05-08 18:38 | 48.63426 | 16.27335 | 28077 ft | 495 kts | 75° |
| 2026-05-08 18:38 | 48.65287 | 16.37374 | 28078 ft | 496 kts | 74° |
| 2026-05-08 18:39 | 48.67122 | 16.47324 | 28075 ft | 495 kts | 74° |
| 2026-05-08 18:39 | 48.68954 | 16.57313 | 28087 ft | 496 kts | 74° |
| 2026-05-08 18:40 | 48.70784 | 16.67349 | 28075 ft | 495 kts | 75° |
| 2026-05-08 18:40 | 48.72879 | 16.77225 | 28083 ft | 495 kts | 67° |
| 2026-05-08 18:41 | 48.76342 | 16.86159 | 28080 ft | 494 kts | 53° |
| 2026-05-08 18:41 | 48.80540 | 16.94412 | 28084 ft | 493 kts | 49° |
| 2026-05-08 18:42 | 48.84863 | 17.02425 | 28077 ft | 494 kts | 49° |
| 2026-05-08 18:42 | 48.89183 | 17.10520 | 28087 ft | 494 kts | 49° |
| 2026-05-08 18:43 | 48.93452 | 17.18685 | 28086 ft | 495 kts | 50° |
| 2026-05-08 18:43 | 48.97677 | 17.26879 | 28089 ft | 496 kts | 50° |
| 2026-05-08 18:44 | 49.01944 | 17.35216 | 28088 ft | 496 kts | 50° |
| 2026-05-08 18:44 | 49.06152 | 17.43473 | 28093 ft | 496 kts | 50° |
| 2026-05-08 18:45 | 49.10365 | 17.51767 | 28096 ft | 495 kts | 50° |
| 2026-05-08 18:45 | 49.14555 | 17.60041 | 28095 ft | 495 kts | 50° |
| 2026-05-08 18:46 | 49.18769 | 17.68387 | 28102 ft | 495 kts | 50° |
| 2026-05-08 18:46 | 49.22974 | 17.76737 | 28106 ft | 495 kts | 51° |
| 2026-05-08 18:47 | 49.27157 | 17.85073 | 28102 ft | 496 kts | 50° |
| 2026-05-08 18:47 | 49.31337 | 17.93429 | 28101 ft | 494 kts | 50° |
| 2026-05-08 18:48 | 49.35517 | 18.01808 | 28106 ft | 494 kts | 50° |
| 2026-05-08 18:48 | 49.39687 | 18.10195 | 28101 ft | 496 kts | 50° |
| 2026-05-08 18:49 | 49.43834 | 18.18561 | 28103 ft | 495 kts | 50° |
| 2026-05-08 18:49 | 49.48002 | 18.26996 | 28108 ft | 495 kts | 50° |
| 2026-05-08 18:50 | 49.52144 | 18.35408 | 28103 ft | 495 kts | 50° |
| 2026-05-08 18:50 | 49.56266 | 18.43806 | 28100 ft | 494 kts | 50° |
| 2026-05-08 18:51 | 49.60416 | 18.52284 | 28105 ft | 496 kts | 50° |
| 2026-05-08 18:51 | 49.64550 | 18.60759 | 28103 ft | 494 kts | 50° |
| 2026-05-08 18:52 | 49.68482 | 18.69445 | 28107 ft | 497 kts | 57° |
| 2026-05-08 18:52 | 49.71413 | 18.79141 | 28103 ft | 500 kts | 68° |
| 2026-05-08 18:53 | 49.73643 | 18.89351 | 28098 ft | 501 kts | 71° |
| 2026-05-08 18:53 | 49.75697 | 18.99628 | 28087 ft | 502 kts | 72° |
| 2026-05-08 18:54 | 49.77746 | 19.09883 | 28089 ft | 502 kts | 72° |
| 2026-05-08 18:54 | 49.79839 | 19.20200 | 28095 ft | 501 kts | 71° |
| 2026-05-08 18:55 | 49.82984 | 19.35554 | 28099 ft | 500 kts | 71° |
| 2026-05-08 18:56 | 49.85075 | 19.45752 | 28111 ft | 500 kts | 71° |
| 2026-05-08 18:56 | 49.87164 | 19.55985 | 28107 ft | 500 kts | 71° |
| 2026-05-08 18:57 | 49.89252 | 19.66265 | 28108 ft | 499 kts | 71° |
| 2026-05-08 18:57 | 49.91404 | 19.76519 | 28114 ft | 500 kts | 68° |
| 2026-05-08 18:58 | 49.94826 | 19.85697 | 28111 ft | 491 kts | 45° |
| 2026-05-08 18:58 | 49.97323 | 19.89259 | 28116 ft | 486 kts | 33° |
| 2026-05-08 18:58 | 50.00093 | 19.92155 | 28111 ft | 480 kts | 26° |
| 2026-05-08 18:59 | 50.06075 | 19.96512 | 28124 ft | 472 kts | 14° |
| 2026-05-08 18:59 | 50.12302 | 19.99565 | 28120 ft | 469 kts | 11° |
| 2026-05-08 19:00 | 50.18523 | 20.02357 | 28121 ft | 468 kts | 11° |
| 2026-05-08 19:00 | 50.24755 | 20.05248 | 28119 ft | 467 kts | 12° |
| 2026-05-08 19:01 | 50.30981 | 20.08248 | 28115 ft | 468 kts | 12° |
| 2026-05-08 19:01 | 50.37154 | 20.11288 | 28115 ft | 467 kts | 12° |
| 2026-05-08 19:02 | 50.43342 | 20.14369 | 28112 ft | 466 kts | 12° |
| 2026-05-08 19:02 | 50.49543 | 20.17471 | 28119 ft | 466 kts | 13° |
| 2026-05-08 19:03 | 50.55586 | 20.20505 | 28116 ft | 465 kts | 13° |
| 2026-05-08 19:03 | 50.61739 | 20.23601 | 28113 ft | 465 kts | 13° |
| 2026-05-08 19:04 | 50.67886 | 20.27004 | 28114 ft | 468 kts | 17° |
| 2026-05-08 19:04 | 50.73827 | 20.31025 | 28118 ft | 468 kts | 19° |
| 2026-05-08 19:05 | 50.79783 | 20.35249 | 28025 ft | 469 kts | 20° |
| 2026-05-08 19:05 | 50.82748 | 20.37351 | 27575 ft | 468 kts | 20° |
| 2026-05-08 19:05 | 50.85686 | 20.39426 | 27071 ft | 464 kts | 20° |
| 2026-05-08 19:05 | 50.88569 | 20.41458 | 26555 ft | 454 kts | 20° |
| 2026-05-08 19:06 | 50.91419 | 20.43463 | 26037 ft | 444 kts | 19° |
| 2026-05-08 19:06 | 50.94236 | 20.45439 | 25511 ft | 434 kts | 20° |
| 2026-05-08 19:06 | 50.96956 | 20.47342 | 25004 ft | 425 kts | 19° |
| 2026-05-08 19:06 | 50.99618 | 20.49202 | 24482 ft | 417 kts | 19° |
| 2026-05-08 19:07 | 51.02235 | 20.51030 | 23965 ft | 410 kts | 19° |
| 2026-05-08 19:07 | 51.04795 | 20.52816 | 23439 ft | 403 kts | 19° |
| 2026-05-08 19:07 | 51.07338 | 20.54592 | 22905 ft | 396 kts | 19° |
| 2026-05-08 19:07 | 51.09815 | 20.56323 | 22377 ft | 390 kts | 19° |
| 2026-05-08 19:08 | 51.12286 | 20.58051 | 21847 ft | 384 kts | 19° |
| 2026-05-08 19:08 | 51.14697 | 20.59737 | 21328 ft | 378 kts | 19° |
| 2026-05-08 19:08 | 51.17077 | 20.61405 | 20809 ft | 373 kts | 19° |
| 2026-05-08 19:08 | 51.19426 | 20.63053 | 20284 ft | 369 kts | 19° |
| 2026-05-08 19:09 | 51.21769 | 20.64698 | 19766 ft | 366 kts | 19° |
| 2026-05-08 19:09 | 51.24068 | 20.66314 | 19255 ft | 363 kts | 20° |
| 2026-05-08 19:09 | 51.26369 | 20.68036 | 18733 ft | 361 kts | 23° |
| 2026-05-08 19:09 | 51.28537 | 20.70018 | 18224 ft | 361 kts | 30° |
| 2026-05-08 19:10 | 51.30528 | 20.72371 | 17723 ft | 361 kts | 36° |
| 2026-05-08 19:10 | 51.32451 | 20.75026 | 17221 ft | 367 kts | 39° |
| 2026-05-08 19:10 | 51.34349 | 20.77827 | 16723 ft | 387 kts | 40° |
| 2026-05-08 19:10 | 51.36337 | 20.80818 | 16210 ft | 390 kts | 41° |
| 2026-05-08 19:11 | 51.38298 | 20.83778 | 15702 ft | 388 kts | 41° |
| 2026-05-08 19:11 | 51.40227 | 20.86679 | 15222 ft | 385 kts | 40° |
| 2026-05-08 19:11 | 51.42185 | 20.89607 | 14708 ft | 382 kts | 40° |
| 2026-05-08 19:11 | 51.44096 | 20.92454 | 14209 ft | 379 kts | 40° |
| 2026-05-08 19:12 | 51.46018 | 20.95307 | 13712 ft | 376 kts | 40° |
| 2026-05-08 19:12 | 51.47924 | 20.98130 | 13211 ft | 373 kts | 40° |
| 2026-05-08 19:12 | 51.49815 | 21.00934 | 12705 ft | 370 kts | 40° |
| 2026-05-08 19:12 | 51.51695 | 21.03724 | 12205 ft | 367 kts | 40° |
| 2026-05-08 19:13 | 51.53558 | 21.06495 | 11704 ft | 364 kts | 40° |
| 2026-05-08 19:13 | 51.55397 | 21.09234 | 11202 ft | 361 kts | 40° |
| 2026-05-08 19:13 | 51.57214 | 21.11943 | 10704 ft | 358 kts | 40° |
| 2026-05-08 19:13 | 51.59024 | 21.14646 | 10258 ft | 354 kts | 40° |
| 2026-05-08 19:14 | 51.60817 | 21.17326 | 10147 ft | 352 kts | 41° |
| 2026-05-08 19:14 | 51.62609 | 21.20007 | 10141 ft | 354 kts | 40° |
| 2026-05-08 19:14 | 51.64426 | 21.22731 | 10142 ft | 353 kts | 40° |
| 2026-05-08 19:14 | 51.66195 | 21.25393 | 10134 ft | 354 kts | 41° |
| 2026-05-08 19:15 | 51.68007 | 21.28128 | 10138 ft | 354 kts | 41° |
| 2026-05-08 19:15 | 51.69781 | 21.30806 | 10143 ft | 353 kts | 41° |
| 2026-05-08 19:15 | 51.71567 | 21.33505 | 10133 ft | 353 kts | 41° |
| 2026-05-08 19:15 | 51.73363 | 21.36217 | 10138 ft | 354 kts | 41° |
| 2026-05-08 19:16 | 51.75215 | 21.39012 | 10134 ft | 378 kts | 40° |
| 2026-05-08 19:16 | 51.77155 | 21.41936 | 10133 ft | 390 kts | 41° |
| 2026-05-08 19:16 | 51.79131 | 21.44925 | 10135 ft | 391 kts | 41° |
| 2026-05-08 19:16 | 51.81123 | 21.47947 | 10132 ft | 392 kts | 41° |
| 2026-05-08 19:17 | 51.83111 | 21.50966 | 10134 ft | 392 kts | 41° |
| 2026-05-08 19:17 | 51.85070 | 21.53946 | 10137 ft | 391 kts | 41° |
| 2026-05-08 19:17 | 51.87039 | 21.56945 | 10132 ft | 391 kts | 41° |
| 2026-05-08 19:17 | 51.89073 | 21.59886 | 10132 ft | 390 kts | 36° |
| 2026-05-08 19:18 | 51.91333 | 21.62238 | 10133 ft | 385 kts | 22° |
| 2026-05-08 19:18 | 51.93899 | 21.63222 | 10133 ft | 379 kts | 359° |
| 2026-05-08 19:18 | 51.96492 | 21.62863 | 10133 ft | 377 kts | 348° |
| 2026-05-08 19:18 | 51.99046 | 21.62068 | 10135 ft | 375 kts | 345° |
| 2026-05-08 19:19 | 52.01605 | 21.61155 | 10132 ft | 376 kts | 345° |
| 2026-05-08 19:19 | 52.04155 | 21.60259 | 10127 ft | 376 kts | 345° |
| 2026-05-08 19:19 | 52.06704 | 21.59420 | 10135 ft | 376 kts | 346° |
| 2026-05-08 19:19 | 52.09282 | 21.58622 | 10136 ft | 376 kts | 347° |
| 2026-05-08 19:20 | 52.11861 | 21.57859 | 10134 ft | 377 kts | 347° |
| 2026-05-08 19:20 | 52.13574 | 21.57361 | 10131 ft | 377 kts | 347° |
| 2026-05-08 19:20 | 52.17028 | 21.56367 | 10131 ft | 377 kts | 347° |
| 2026-05-08 19:20 | 52.19573 | 21.55573 | 10131 ft | 377 kts | 344° |
| 2026-05-08 19:21 | 52.22078 | 21.54322 | 10129 ft | 375 kts | 338° |
| 2026-05-08 19:21 | 52.24490 | 21.52748 | 10133 ft | 374 kts | 335° |
| 2026-05-08 19:21 | 52.26864 | 21.51031 | 10131 ft | 373 kts | 334° |
| 2026-05-08 19:21 | 52.29233 | 21.49272 | 10135 ft | 373 kts | 334° |
| 2026-05-08 19:22 | 52.31590 | 21.47533 | 10136 ft | 373 kts | 334° |
| 2026-05-08 19:22 | 52.33941 | 21.45827 | 10137 ft | 374 kts | 334° |
| 2026-05-08 19:22 | 52.36314 | 21.44127 | 10135 ft | 374 kts | 335° |
| 2026-05-08 19:22 | 52.38705 | 21.42429 | 10137 ft | 374 kts | 335° |
| 2026-05-08 19:23 | 52.41110 | 21.40727 | 10008 ft | 376 kts | 335° |
| 2026-05-08 19:23 | 52.43494 | 21.39041 | 9671 ft | 372 kts | 335° |
| 2026-05-08 19:23 | 52.45825 | 21.37375 | 9188 ft | 369 kts | 334° |
| 2026-05-08 19:23 | 52.48040 | 21.35322 | 8689 ft | 364 kts | 324° |
| 2026-05-08 19:24 | 52.49780 | 21.32438 | 8180 ft | 350 kts | 303° |
| 2026-05-08 19:24 | 52.50630 | 21.28796 | 7667 ft | 340 kts | 280° |
| 2026-05-08 19:24 | 52.50623 | 21.24989 | 7162 ft | 331 kts | 263° |
| 2026-05-08 19:24 | 52.50269 | 21.21407 | 6658 ft | 312 kts | 262° |
| 2026-05-08 19:25 | 52.49965 | 21.18015 | 6145 ft | 294 kts | 264° |
| 2026-05-08 19:25 | 52.49703 | 21.14774 | 5638 ft | 279 kts | 264° |
| 2026-05-08 19:25 | 52.49439 | 21.11699 | 5129 ft | 269 kts | 263° |
| 2026-05-08 19:25 | 52.49180 | 21.08745 | 4618 ft | 260 kts | 263° |
| 2026-05-08 19:26 | 52.48925 | 21.05880 | 4103 ft | 244 kts | 263° |
| 2026-05-08 19:26 | 52.48689 | 21.03252 | 3589 ft | 222 kts | 263° |
| 2026-05-08 19:26 | 52.48474 | 21.00869 | 3184 ft | 205 kts | 264° |
| 2026-05-08 19:26 | 52.48270 | 20.98570 | 3136 ft | 200 kts | 264° |
| 2026-05-08 19:27 | 52.48069 | 20.96335 | 3158 ft | 200 kts | 264° |
| 2026-05-08 19:27 | 52.47870 | 20.94169 | 3155 ft | 195 kts | 264° |
| 2026-05-08 19:27 | 52.47664 | 20.92084 | 3162 ft | 180 kts | 263° |
| 2026-05-08 19:27 | 52.47374 | 20.90067 | 3165 ft | 181 kts | 252° |
| 2026-05-08 19:28 | 52.46964 | 20.88140 | 3204 ft | 180 kts | 257° |
| 2026-05-08 19:28 | 52.46719 | 20.86161 | 3440 ft | 180 kts | 265° |
| 2026-05-08 19:28 | 52.46619 | 20.84112 | 3292 ft | 182 kts | 269° |
| 2026-05-08 19:28 | 52.46561 | 20.82081 | 3082 ft | 176 kts | 272° |
| 2026-05-08 19:29 | 52.46465 | 20.80016 | 2577 ft | 196 kts | 268° |
| 2026-05-08 19:29 | 52.46431 | 20.79401 | 2397 ft | 201 kts | 267° |
| 2026-05-08 19:29 | 52.46315 | 20.77992 | 1967 ft | 209 kts | 264° |
| 2026-05-08 19:30 | 52.46149 | 20.75593 | 1205 ft | 209 kts | 265° |
| 2026-05-08 19:30 | 52.45933 | 20.73449 | 999 ft | 183 kts | 263° |
| 2026-05-08 19:30 | 52.45722 | 20.71536 | 812 ft | 166 kts | 262° |
| 2026-05-08 19:30 | 52.45553 | 20.69778 | 629 ft | 150 kts | 263° |
| 2026-05-08 19:31 | 52.45396 | 20.68171 | 474 ft | 136 kts | 264° |
| 2026-05-08 19:31 | 52.45261 | 20.66712 | 334 ft | 125 kts | 263° |
| 2026-05-08 19:31 | 52.45206 | 20.65673 | 334 ft | 47 kts | 271° |
| 2026-05-08 19:31 | 52.45226 | 20.65247 | 332 ft | 28 kts | 278° |
| 2026-05-08 19:32 | 52.45247 | 20.65027 | 332 ft | 11 kts | 280° |
| 2026-05-08 19:32 | 52.45253 | 20.64979 | 332 ft | 0 kts | 280° |